sensor_id;sensor_type;location;lat;lon;timestamp;P1;durP1;ratioP1;P2;durP2;ratioP2
12631;SDS011;6381;45.748;12.106;2023-11-22T00:01:04;7.77;;;6.97;;
12631;SDS011;6381;45.748;12.106;2023-11-22T00:03:34;7.70;;;7.00;;
12631;SDS011;6381;45.748;12.106;2023-11-22T00:06:05;7.90;;;7.10;;
12631;SDS011;6381;45.748;12.106;2023-11-22T00:08:37;9.80;;;7.47;;
12631;SDS011;6381;45.748;12.106;2023-11-22T00:11:08;8.67;;;7.80;;
12631;SDS011;6381;45.748;12.106;2023-11-22T00:13:38;8.77;;;7.87;;
12631;SDS011;6381;45.748;12.106;2023-11-22T00:16:09;8.70;;;7.90;;
12631;SDS011;6381;45.748;12.106;2023-11-22T00:18:39;8.60;;;7.77;;
12631;SDS011;6381;45.748;12.106;2023-11-22T00:21:08;10.03;;;7.87;;
12631;SDS011;6381;45.748;12.106;2023-11-22T00:23:40;8.53;;;7.50;;
12631;SDS011;6381;45.748;12.106;2023-11-22T00:26:10;9.00;;;8.20;;
12631;SDS011;6381;45.748;12.106;2023-11-22T00:28:43;8.60;;;7.80;;
12631;SDS011;6381;45.748;12.106;2023-11-22T00:31:13;8.43;;;7.63;;
12631;SDS011;6381;45.748;12.106;2023-11-22T00:33:43;9.40;;;7.53;;
12631;SDS011;6381;45.748;12.106;2023-11-22T00:36:13;8.17;;;7.43;;
12631;SDS011;6381;45.748;12.106;2023-11-22T00:38:45;8.50;;;7.50;;
12631;SDS011;6381;45.748;12.106;2023-11-22T00:41:15;9.30;;;7.80;;
12631;SDS011;6381;45.748;12.106;2023-11-22T00:43:44;8.50;;;7.70;;
12631;SDS011;6381;45.748;12.106;2023-11-22T00:46:15;9.57;;;8.20;;
12631;SDS011;6381;45.748;12.106;2023-11-22T00:48:45;8.27;;;7.57;;
12631;SDS011;6381;45.748;12.106;2023-11-22T00:51:15;8.70;;;7.90;;
12631;SDS011;6381;45.748;12.106;2023-11-22T00:53:48;10.40;;;8.30;;
12631;SDS011;6381;45.748;12.106;2023-11-22T00:56:19;10.10;;;9.10;;
12631;SDS011;6381;45.748;12.106;2023-11-22T00:58:48;8.57;;;7.87;;
12631;SDS011;6381;45.748;12.106;2023-11-22T01:01:18;9.10;;;8.30;;
12631;SDS011;6381;45.748;12.106;2023-11-22T01:03:48;8.97;;;8.07;;
12631;SDS011;6381;45.748;12.106;2023-11-22T01:06:18;9.97;;;8.63;;
12631;SDS011;6381;45.748;12.106;2023-11-22T01:08:50;8.80;;;8.00;;
12631;SDS011;6381;45.748;12.106;2023-11-22T01:11:19;9.20;;;8.30;;
12631;SDS011;6381;45.748;12.106;2023-11-22T01:13:50;9.30;;;8.37;;
12631;SDS011;6381;45.748;12.106;2023-11-22T01:16:20;9.03;;;8.13;;
12631;SDS011;6381;45.748;12.106;2023-11-22T01:18:50;10.77;;;8.10;;
12631;SDS011;6381;45.748;12.106;2023-11-22T01:21:20;10.13;;;8.03;;
12631;SDS011;6381;45.748;12.106;2023-11-22T01:23:52;8.47;;;7.57;;
12631;SDS011;6381;45.748;12.106;2023-11-22T01:26:22;7.97;;;7.17;;
12631;SDS011;6381;45.748;12.106;2023-11-22T01:28:52;7.67;;;6.97;;
12631;SDS011;6381;45.748;12.106;2023-11-22T01:31:22;9.40;;;8.40;;
12631;SDS011;6381;45.748;12.106;2023-11-22T01:33:54;8.43;;;7.67;;
12631;SDS011;6381;45.748;12.106;2023-11-22T01:36:27;8.77;;;7.97;;
12631;SDS011;6381;45.748;12.106;2023-11-22T01:38:58;7.90;;;7.10;;
12631;SDS011;6381;45.748;12.106;2023-11-22T01:41:30;7.67;;;6.97;;
12631;SDS011;6381;45.748;12.106;2023-11-22T01:44:00;7.93;;;7.20;;
12631;SDS011;6381;45.748;12.106;2023-11-22T01:46:30;7.40;;;6.70;;
12631;SDS011;6381;45.748;12.106;2023-11-22T01:49:00;7.33;;;6.50;;
12631;SDS011;6381;45.748;12.106;2023-11-22T01:51:31;7.87;;;7.07;;
12631;SDS011;6381;45.748;12.106;2023-11-22T01:54:02;7.63;;;6.87;;
12631;SDS011;6381;45.748;12.106;2023-11-22T01:56:33;7.73;;;7.03;;
12631;SDS011;6381;45.748;12.106;2023-11-22T01:59:06;8.00;;;7.20;;
12631;SDS011;6381;45.748;12.106;2023-11-22T02:01:36;8.00;;;7.20;;
12631;SDS011;6381;45.748;12.106;2023-11-22T02:04:05;7.63;;;6.93;;
12631;SDS011;6381;45.748;12.106;2023-11-22T02:06:37;8.10;;;7.30;;
12631;SDS011;6381;45.748;12.106;2023-11-22T02:09:08;7.47;;;6.77;;
12631;SDS011;6381;45.748;12.106;2023-11-22T02:11:42;8.50;;;6.80;;
12631;SDS011;6381;45.748;12.106;2023-11-22T02:14:14;7.73;;;6.70;;
12631;SDS011;6381;45.748;12.106;2023-11-22T02:16:44;7.10;;;6.40;;
12631;SDS011;6381;45.748;12.106;2023-11-22T02:19:15;6.77;;;6.07;;
12631;SDS011;6381;45.748;12.106;2023-11-22T02:21:47;7.70;;;6.90;;
12631;SDS011;6381;45.748;12.106;2023-11-22T02:24:19;8.03;;;7.23;;
12631;SDS011;6381;45.748;12.106;2023-11-22T02:26:48;8.00;;;6.17;;
12631;SDS011;6381;45.748;12.106;2023-11-22T02:29:19;7.40;;;6.70;;
12631;SDS011;6381;45.748;12.106;2023-11-22T02:31:49;8.23;;;7.00;;
12631;SDS011;6381;45.748;12.106;2023-11-22T02:34:19;7.80;;;7.00;;
12631;SDS011;6381;45.748;12.106;2023-11-22T02:36:49;7.80;;;6.93;;
12631;SDS011;6381;45.748;12.106;2023-11-22T02:39:32;7.80;;;6.73;;
12631;SDS011;6381;45.748;12.106;2023-11-22T02:42:09;7.23;;;6.53;;
12631;SDS011;6381;45.748;12.106;2023-11-22T02:44:40;7.37;;;6.67;;
12631;SDS011;6381;45.748;12.106;2023-11-22T02:47:10;6.87;;;6.27;;
12631;SDS011;6381;45.748;12.106;2023-11-22T02:49:41;7.43;;;6.73;;
12631;SDS011;6381;45.748;12.106;2023-11-22T02:52:11;8.13;;;7.33;;
12631;SDS011;6381;45.748;12.106;2023-11-22T02:54:44;7.70;;;6.90;;
12631;SDS011;6381;45.748;12.106;2023-11-22T02:57:14;8.27;;;6.87;;
12631;SDS011;6381;45.748;12.106;2023-11-22T02:59:44;7.20;;;6.50;;
12631;SDS011;6381;45.748;12.106;2023-11-22T03:02:14;7.60;;;6.90;;
12631;SDS011;6381;45.748;12.106;2023-11-22T03:04:44;8.33;;;7.07;;
12631;SDS011;6381;45.748;12.106;2023-11-22T03:07:14;7.30;;;6.60;;
12631;SDS011;6381;45.748;12.106;2023-11-22T03:09:47;7.40;;;6.60;;
12631;SDS011;6381;45.748;12.106;2023-11-22T03:12:17;7.53;;;6.83;;
12631;SDS011;6381;45.748;12.106;2023-11-22T03:14:47;7.47;;;6.37;;
12631;SDS011;6381;45.748;12.106;2023-11-22T03:17:17;7.30;;;6.60;;
12631;SDS011;6381;45.748;12.106;2023-11-22T03:19:47;8.20;;;7.40;;
12631;SDS011;6381;45.748;12.106;2023-11-22T03:22:17;7.77;;;6.97;;
12631;SDS011;6381;45.748;12.106;2023-11-22T03:24:50;7.93;;;6.93;;
12631;SDS011;6381;45.748;12.106;2023-11-22T03:27:20;8.27;;;7.30;;
12631;SDS011;6381;45.748;12.106;2023-11-22T03:29:50;7.63;;;6.93;;
12631;SDS011;6381;45.748;12.106;2023-11-22T03:32:22;8.30;;;7.50;;
12631;SDS011;6381;45.748;12.106;2023-11-22T03:34:52;7.70;;;7.00;;
12631;SDS011;6381;45.748;12.106;2023-11-22T03:37:22;7.80;;;7.03;;
12631;SDS011;6381;45.748;12.106;2023-11-22T03:39:53;7.87;;;7.07;;
12631;SDS011;6381;45.748;12.106;2023-11-22T03:42:23;7.50;;;6.80;;
12631;SDS011;6381;45.748;12.106;2023-11-22T03:44:54;8.17;;;7.37;;
12631;SDS011;6381;45.748;12.106;2023-11-22T03:47:26;7.40;;;6.70;;
12631;SDS011;6381;45.748;12.106;2023-11-22T03:49:59;7.43;;;6.73;;
12631;SDS011;6381;45.748;12.106;2023-11-22T03:52:30;7.87;;;7.03;;
12631;SDS011;6381;45.748;12.106;2023-11-22T03:55:01;7.17;;;6.47;;
12631;SDS011;6381;45.748;12.106;2023-11-22T03:57:32;7.00;;;6.30;;
12631;SDS011;6381;45.748;12.106;2023-11-22T04:00:02;7.10;;;6.40;;
12631;SDS011;6381;45.748;12.106;2023-11-22T04:02:38;7.80;;;6.67;;
12631;SDS011;6381;45.748;12.106;2023-11-22T04:05:10;6.77;;;6.07;;
12631;SDS011;6381;45.748;12.106;2023-11-22T04:07:41;6.90;;;6.30;;
12631;SDS011;6381;45.748;12.106;2023-11-22T04:10:12;7.07;;;6.37;;
12631;SDS011;6381;45.748;12.106;2023-11-22T04:12:42;7.30;;;6.60;;
12631;SDS011;6381;45.748;12.106;2023-11-22T04:15:12;11.17;;;9.07;;
12631;SDS011;6381;45.748;12.106;2023-11-22T04:17:43;10.40;;;8.00;;
12631;SDS011;6381;45.748;12.106;2023-11-22T04:20:15;8.80;;;7.27;;
12631;SDS011;6381;45.748;12.106;2023-11-22T04:22:45;11.53;;;8.90;;
12631;SDS011;6381;45.748;12.106;2023-11-22T04:25:16;16.57;;;11.80;;
12631;SDS011;6381;45.748;12.106;2023-11-22T04:27:46;16.47;;;11.43;;
12631;SDS011;6381;45.748;12.106;2023-11-22T04:30:16;13.27;;;10.50;;
12631;SDS011;6381;45.748;12.106;2023-11-22T04:32:46;8.90;;;8.00;;
12631;SDS011;6381;45.748;12.106;2023-11-22T04:35:16;8.60;;;7.60;;
12631;SDS011;6381;45.748;12.106;2023-11-22T04:37:46;6.87;;;6.20;;
12631;SDS011;6381;45.748;12.106;2023-11-22T04:40:17;6.90;;;6.20;;
12631;SDS011;6381;45.748;12.106;2023-11-22T04:42:47;7.67;;;6.27;;
12631;SDS011;6381;45.748;12.106;2023-11-22T04:45:17;7.70;;;6.27;;
12631;SDS011;6381;45.748;12.106;2023-11-22T04:47:46;7.13;;;6.17;;
12631;SDS011;6381;45.748;12.106;2023-11-22T04:50:16;8.70;;;6.10;;
12631;SDS011;6381;45.748;12.106;2023-11-22T04:52:47;7.53;;;6.60;;
12631;SDS011;6381;45.748;12.106;2023-11-22T04:55:18;6.50;;;5.90;;
12631;SDS011;6381;45.748;12.106;2023-11-22T04:57:50;8.27;;;6.40;;
12631;SDS011;6381;45.748;12.106;2023-11-22T05:00:21;7.40;;;6.30;;
12631;SDS011;6381;45.748;12.106;2023-11-22T05:02:51;7.40;;;6.07;;
12631;SDS011;6381;45.748;12.106;2023-11-22T05:05:21;6.27;;;5.67;;
12631;SDS011;6381;45.748;12.106;2023-11-22T05:07:51;6.20;;;5.60;;
12631;SDS011;6381;45.748;12.106;2023-11-22T05:10:23;6.80;;;6.00;;
12631;SDS011;6381;45.748;12.106;2023-11-22T05:12:53;6.33;;;5.43;;
12631;SDS011;6381;45.748;12.106;2023-11-22T05:15:26;6.03;;;5.53;;
12631;SDS011;6381;45.748;12.106;2023-11-22T05:17:56;5.60;;;5.10;;
12631;SDS011;6381;45.748;12.106;2023-11-22T05:20:27;5.67;;;5.10;;
12631;SDS011;6381;45.748;12.106;2023-11-22T05:22:56;5.67;;;5.17;;
12631;SDS011;6381;45.748;12.106;2023-11-22T05:25:28;8.03;;;6.43;;
12631;SDS011;6381;45.748;12.106;2023-11-22T05:27:57;8.87;;;7.40;;
12631;SDS011;6381;45.748;12.106;2023-11-22T05:30:27;7.00;;;6.30;;
12631;SDS011;6381;45.748;12.106;2023-11-22T05:32:57;7.13;;;6.43;;
12631;SDS011;6381;45.748;12.106;2023-11-22T05:35:27;6.30;;;5.70;;
12631;SDS011;6381;45.748;12.106;2023-11-22T05:37:57;6.73;;;6.03;;
12631;SDS011;6381;45.748;12.106;2023-11-22T05:40:29;8.37;;;5.93;;
12631;SDS011;6381;45.748;12.106;2023-11-22T05:42:58;6.20;;;5.60;;
12631;SDS011;6381;45.748;12.106;2023-11-22T05:45:29;5.93;;;5.33;;
12631;SDS011;6381;45.748;12.106;2023-11-22T05:48:02;8.27;;;5.97;;
12631;SDS011;6381;45.748;12.106;2023-11-22T05:50:32;6.07;;;5.43;;
12631;SDS011;6381;45.748;12.106;2023-11-22T05:53:02;6.17;;;5.30;;
12631;SDS011;6381;45.748;12.106;2023-11-22T05:55:33;5.23;;;4.73;;
12631;SDS011;6381;45.748;12.106;2023-11-22T05:58:06;6.60;;;5.43;;
12631;SDS011;6381;45.748;12.106;2023-11-22T06:00:37;5.83;;;5.20;;
12631;SDS011;6381;45.748;12.106;2023-11-22T06:03:06;5.97;;;5.37;;
12631;SDS011;6381;45.748;12.106;2023-11-22T06:05:36;6.23;;;5.63;;
12631;SDS011;6381;45.748;12.106;2023-11-22T06:08:06;7.33;;;6.03;;
12631;SDS011;6381;45.748;12.106;2023-11-22T06:10:38;7.43;;;6.60;;
12631;SDS011;6381;45.748;12.106;2023-11-22T06:13:09;6.77;;;6.10;;
12631;SDS011;6381;45.748;12.106;2023-11-22T06:15:39;7.93;;;6.77;;
12631;SDS011;6381;45.748;12.106;2023-11-22T06:18:09;7.33;;;6.20;;
12631;SDS011;6381;45.748;12.106;2023-11-22T06:20:41;7.13;;;6.10;;
12631;SDS011;6381;45.748;12.106;2023-11-22T06:23:11;7.67;;;5.80;;
12631;SDS011;6381;45.748;12.106;2023-11-22T06:25:43;7.27;;;6.07;;
12631;SDS011;6381;45.748;12.106;2023-11-22T06:28:13;7.00;;;6.30;;
12631;SDS011;6381;45.748;12.106;2023-11-22T06:30:43;7.10;;;6.40;;
12631;SDS011;6381;45.748;12.106;2023-11-22T06:33:13;6.70;;;5.80;;
12631;SDS011;6381;45.748;12.106;2023-11-22T06:35:43;6.57;;;5.97;;
12631;SDS011;6381;45.748;12.106;2023-11-22T06:38:13;7.10;;;6.13;;
12631;SDS011;6381;45.748;12.106;2023-11-22T06:40:46;9.07;;;6.10;;
12631;SDS011;6381;45.748;12.106;2023-11-22T06:43:16;6.87;;;6.27;;
12631;SDS011;6381;45.748;12.106;2023-11-22T06:45:46;6.87;;;5.90;;
12631;SDS011;6381;45.748;12.106;2023-11-22T06:48:16;8.33;;;6.00;;
12631;SDS011;6381;45.748;12.106;2023-11-22T06:50:46;9.63;;;6.23;;
12631;SDS011;6381;45.748;12.106;2023-11-22T06:53:16;8.73;;;7.87;;
12631;SDS011;6381;45.748;12.106;2023-11-22T06:55:48;8.63;;;7.43;;
12631;SDS011;6381;45.748;12.106;2023-11-22T06:58:18;7.80;;;7.00;;
12631;SDS011;6381;45.748;12.106;2023-11-22T07:00:48;8.83;;;7.93;;
12631;SDS011;6381;45.748;12.106;2023-11-22T07:03:18;8.07;;;7.27;;
12631;SDS011;6381;45.748;12.106;2023-11-22T07:05:49;8.10;;;7.10;;
12631;SDS011;6381;45.748;12.106;2023-11-22T07:08:19;7.53;;;6.77;;
12631;SDS011;6381;45.748;12.106;2023-11-22T07:10:50;8.20;;;6.73;;
12631;SDS011;6381;45.748;12.106;2023-11-22T07:13:20;9.03;;;6.70;;
12631;SDS011;6381;45.748;12.106;2023-11-22T07:15:49;8.00;;;6.80;;
12631;SDS011;6381;45.748;12.106;2023-11-22T07:18:19;10.27;;;7.90;;
12631;SDS011;6381;45.748;12.106;2023-11-22T07:20:51;11.67;;;8.30;;
12631;SDS011;6381;45.748;12.106;2023-11-22T07:23:22;7.90;;;6.87;;
12631;SDS011;6381;45.748;12.106;2023-11-22T07:25:58;6.63;;;5.90;;
12631;SDS011;6381;45.748;12.106;2023-11-22T07:28:27;5.97;;;5.33;;
12631;SDS011;6381;45.748;12.106;2023-11-22T07:30:58;5.93;;;5.33;;
12631;SDS011;6381;45.748;12.106;2023-11-22T07:33:29;6.00;;;5.23;;
12631;SDS011;6381;45.748;12.106;2023-11-22T07:35:58;7.13;;;5.23;;
12631;SDS011;6381;45.748;12.106;2023-11-22T07:38:27;5.57;;;5.00;;
12631;SDS011;6381;45.748;12.106;2023-11-22T07:41:00;5.57;;;5.00;;
12631;SDS011;6381;45.748;12.106;2023-11-22T07:43:29;5.10;;;4.60;;
12631;SDS011;6381;45.748;12.106;2023-11-22T07:45:59;6.50;;;4.73;;
12631;SDS011;6381;45.748;12.106;2023-11-22T07:48:31;6.07;;;4.90;;
12631;SDS011;6381;45.748;12.106;2023-11-22T07:51:04;5.73;;;4.80;;
12631;SDS011;6381;45.748;12.106;2023-11-22T07:53:34;5.27;;;4.77;;
12631;SDS011;6381;45.748;12.106;2023-11-22T07:56:06;11.70;;;6.13;;
12631;SDS011;6381;45.748;12.106;2023-11-22T07:58:37;11.17;;;5.27;;
12631;SDS011;6381;45.748;12.106;2023-11-22T08:01:07;6.00;;;5.20;;
12631;SDS011;6381;45.748;12.106;2023-11-22T08:03:41;6.30;;;4.77;;
12631;SDS011;6381;45.748;12.106;2023-11-22T08:06:15;5.67;;;5.07;;
12631;SDS011;6381;45.748;12.106;2023-11-22T08:08:45;9.70;;;5.47;;
12631;SDS011;6381;45.748;12.106;2023-11-22T08:11:16;6.00;;;5.40;;
12631;SDS011;6381;45.748;12.106;2023-11-22T08:13:46;7.50;;;5.47;;
12631;SDS011;6381;45.748;12.106;2023-11-22T08:16:15;5.67;;;4.93;;
12631;SDS011;6381;45.748;12.106;2023-11-22T08:18:47;5.97;;;5.37;;
12631;SDS011;6381;45.748;12.106;2023-11-22T08:21:18;6.77;;;5.57;;
12631;SDS011;6381;45.748;12.106;2023-11-22T08:23:48;9.53;;;5.73;;
12631;SDS011;6381;45.748;12.106;2023-11-22T08:26:20;5.40;;;4.90;;
12631;SDS011;6381;45.748;12.106;2023-11-22T08:28:53;6.47;;;5.43;;
12631;SDS011;6381;45.748;12.106;2023-11-22T08:31:23;5.77;;;5.17;;
12631;SDS011;6381;45.748;12.106;2023-11-22T08:33:54;6.00;;;5.40;;
12631;SDS011;6381;45.748;12.106;2023-11-22T08:36:24;5.70;;;5.20;;
12631;SDS011;6381;45.748;12.106;2023-11-22T08:38:55;7.13;;;5.30;;
12631;SDS011;6381;45.748;12.106;2023-11-22T08:41:28;7.70;;;5.57;;
12631;SDS011;6381;45.748;12.106;2023-11-22T08:43:59;6.77;;;5.27;;
12631;SDS011;6381;45.748;12.106;2023-11-22T08:46:30;6.57;;;4.97;;
12631;SDS011;6381;45.748;12.106;2023-11-22T08:48:59;8.90;;;5.77;;
12631;SDS011;6381;45.748;12.106;2023-11-22T08:51:30;5.97;;;5.23;;
12631;SDS011;6381;45.748;12.106;2023-11-22T08:54:01;6.37;;;5.53;;
12631;SDS011;6381;45.748;12.106;2023-11-22T08:56:33;6.23;;;5.57;;
12631;SDS011;6381;45.748;12.106;2023-11-22T08:59:03;5.87;;;4.77;;
12631;SDS011;6381;45.748;12.106;2023-11-22T09:01:34;6.20;;;5.10;;
12631;SDS011;6381;45.748;12.106;2023-11-22T09:04:03;4.67;;;4.27;;
12631;SDS011;6381;45.748;12.106;2023-11-22T09:06:35;5.07;;;4.50;;
12631;SDS011;6381;45.748;12.106;2023-11-22T09:09:05;6.90;;;4.43;;
12631;SDS011;6381;45.748;12.106;2023-11-22T09:11:37;6.83;;;5.33;;
12631;SDS011;6381;45.748;12.106;2023-11-22T09:14:07;6.40;;;4.57;;
12631;SDS011;6381;45.748;12.106;2023-11-22T09:16:37;5.33;;;4.07;;
12631;SDS011;6381;45.748;12.106;2023-11-22T09:19:07;3.60;;;2.67;;
12631;SDS011;6381;45.748;12.106;2023-11-22T09:21:37;4.97;;;4.20;;
12631;SDS011;6381;45.748;12.106;2023-11-22T09:24:06;4.53;;;3.77;;
12631;SDS011;6381;45.748;12.106;2023-11-22T09:26:40;4.33;;;3.50;;
12631;SDS011;6381;45.748;12.106;2023-11-22T09:29:11;3.10;;;2.80;;
12631;SDS011;6381;45.748;12.106;2023-11-22T09:31:42;3.60;;;2.83;;
12631;SDS011;6381;45.748;12.106;2023-11-22T09:34:13;2.60;;;2.40;;
12631;SDS011;6381;45.748;12.106;2023-11-22T09:36:45;3.57;;;2.17;;
12631;SDS011;6381;45.748;12.106;2023-11-22T09:39:15;2.97;;;2.10;;
12631;SDS011;6381;45.748;12.106;2023-11-22T09:41:50;2.67;;;1.70;;
12631;SDS011;6381;45.748;12.106;2023-11-22T09:44:21;2.73;;;2.10;;
12631;SDS011;6381;45.748;12.106;2023-11-22T09:46:51;2.00;;;1.80;;
12631;SDS011;6381;45.748;12.106;2023-11-22T09:49:24;59.23;;;34.03;;
12631;SDS011;6381;45.748;12.106;2023-11-22T09:51:59;408.17;;;243.83;;
12631;SDS011;6381;45.748;12.106;2023-11-22T09:54:32;1128.10;;;645.07;;
12631;SDS011;6381;45.748;12.106;2023-11-22T09:57:05;1999.90;;;999.90;;
12631;SDS011;6381;45.748;12.106;2023-11-22T09:59:38;1999.90;;;999.90;;
12631;SDS011;6381;45.748;12.106;2023-11-22T10:02:09;1999.90;;;964.60;;
12631;SDS011;6381;45.748;12.106;2023-11-22T10:04:39;87.70;;;57.28;;
12631;SDS011;6381;45.748;12.106;2023-11-22T10:07:10;1999.90;;;999.90;;
12631;SDS011;6381;45.748;12.106;2023-11-22T10:09:41;1999.90;;;999.90;;
12631;SDS011;6381;45.748;12.106;2023-11-22T10:12:13;1552.03;;;747.85;;
12631;SDS011;6381;45.748;12.106;2023-11-22T10:14:47;62.45;;;40.58;;
12631;SDS011;6381;45.748;12.106;2023-11-22T10:17:17;54.58;;;39.60;;
12631;SDS011;6381;45.748;12.106;2023-11-22T10:19:48;213.02;;;128.25;;
12631;SDS011;6381;45.748;12.106;2023-11-22T10:22:22;814.58;;;512.50;;
12631;SDS011;6381;45.748;12.106;2023-11-22T10:24:52;1667.60;;;888.42;;
12631;SDS011;6381;45.748;12.106;2023-11-22T10:27:29;1999.90;;;999.90;;
12631;SDS011;6381;45.748;12.106;2023-11-22T10:29:59;1851.80;;;948.50;;
12631;SDS011;6381;45.748;12.106;2023-11-22T10:32:30;1276.32;;;492.63;;
12631;SDS011;6381;45.748;12.106;2023-11-22T10:35:01;972.70;;;517.78;;
12631;SDS011;6381;45.748;12.106;2023-11-22T10:37:31;33.40;;;24.00;;
12631;SDS011;6381;45.748;12.106;2023-11-22T10:40:01;1999.90;;;999.90;;
12631;SDS011;6381;45.748;12.106;2023-11-22T10:42:34;1999.90;;;999.90;;
12631;SDS011;6381;45.748;12.106;2023-11-22T10:45:04;1999.90;;;999.90;;
12631;SDS011;6381;45.748;12.106;2023-11-22T10:47:35;516.88;;;356.25;;
12631;SDS011;6381;45.748;12.106;2023-11-22T10:50:09;1731.00;;;951.85;;
12631;SDS011;6381;45.748;12.106;2023-11-22T10:52:41;1963.28;;;972.13;;
12631;SDS011;6381;45.748;12.106;2023-11-22T10:55:11;99.22;;;76.72;;
12631;SDS011;6381;45.748;12.106;2023-11-22T10:57:45;55.67;;;44.22;;
12631;SDS011;6381;45.748;12.106;2023-11-22T11:00:21;18.80;;;15.30;;
12631;SDS011;6381;45.748;12.106;2023-11-22T11:02:51;3.08;;;2.03;;
12631;SDS011;6381;45.748;12.106;2023-11-22T11:05:30;6.68;;;2.00;;
12631;SDS011;6381;45.748;12.106;2023-11-22T11:08:04;2.15;;;1.70;;
12631;SDS011;6381;45.748;12.106;2023-11-22T11:10:38;1.98;;;1.77;;
12631;SDS011;6381;45.748;12.106;2023-11-22T11:13:11;1.90;;;1.70;;
12631;SDS011;6381;45.748;12.106;2023-11-22T11:15:41;1.98;;;1.40;;
12631;SDS011;6381;45.748;12.106;2023-11-22T11:18:13;4.78;;;1.80;;
12631;SDS011;6381;45.748;12.106;2023-11-22T11:20:45;1.92;;;1.63;;
12631;SDS011;6381;45.748;12.106;2023-11-22T11:23:17;2.20;;;1.70;;
12631;SDS011;6381;45.748;12.106;2023-11-22T11:25:49;2.95;;;2.22;;
12631;SDS011;6381;45.748;12.106;2023-11-22T11:28:23;1.75;;;1.65;;
12631;SDS011;6381;45.748;12.106;2023-11-22T11:30:54;2.55;;;1.90;;
12631;SDS011;6381;45.748;12.106;2023-11-22T11:33:26;2.22;;;1.70;;
12631;SDS011;6381;45.748;12.106;2023-11-22T11:36:01;2.10;;;1.73;;
12631;SDS011;6381;45.748;12.106;2023-11-22T11:38:32;2.42;;;1.88;;
12631;SDS011;6381;45.748;12.106;2023-11-22T11:41:08;3.17;;;1.65;;
12631;SDS011;6381;45.748;12.106;2023-11-22T11:43:42;2.28;;;1.80;;
12631;SDS011;6381;45.748;12.106;2023-11-22T11:46:13;2.50;;;1.88;;
12631;SDS011;6381;45.748;12.106;2023-11-22T11:48:44;4.18;;;1.88;;
12631;SDS011;6381;45.748;12.106;2023-11-22T11:51:16;2.58;;;1.83;;
12631;SDS011;6381;45.748;12.106;2023-11-22T11:53:46;2.92;;;1.98;;
12631;SDS011;6381;45.748;12.106;2023-11-22T11:56:17;2.13;;;1.70;;
12631;SDS011;6381;45.748;12.106;2023-11-22T11:58:49;2.35;;;1.88;;
12631;SDS011;6381;45.748;12.106;2023-11-22T12:01:19;2.55;;;1.90;;
12631;SDS011;6381;45.748;12.106;2023-11-22T12:03:50;2.95;;;2.10;;
12631;SDS011;6381;45.748;12.106;2023-11-22T12:06:20;3.38;;;2.33;;
12631;SDS011;6381;45.748;12.106;2023-11-22T12:08:50;3.67;;;2.15;;
12631;SDS011;6381;45.748;12.106;2023-11-22T12:11:20;2.53;;;2.20;;
12631;SDS011;6381;45.748;12.106;2023-11-22T12:13:51;2.90;;;2.30;;
12631;SDS011;6381;45.748;12.106;2023-11-22T12:16:24;3.20;;;2.10;;
12631;SDS011;6381;45.748;12.106;2023-11-22T12:18:54;3.72;;;2.25;;
12631;SDS011;6381;45.748;12.106;2023-11-22T12:21:26;2.70;;;2.17;;
12631;SDS011;6381;45.748;12.106;2023-11-22T12:23:58;3.00;;;2.40;;
12631;SDS011;6381;45.748;12.106;2023-11-22T12:26:30;4.25;;;3.03;;
12631;SDS011;6381;45.748;12.106;2023-11-22T12:29:03;3.45;;;2.67;;
12631;SDS011;6381;45.748;12.106;2023-11-22T12:31:36;6.90;;;6.20;;
12631;SDS011;6381;45.748;12.106;2023-11-22T12:34:18;3.53;;;2.90;;
12631;SDS011;6381;45.748;12.106;2023-11-22T12:36:48;3.47;;;2.53;;
12631;SDS011;6381;45.748;12.106;2023-11-22T12:39:19;4.47;;;2.20;;
12631;SDS011;6381;45.748;12.106;2023-11-22T12:41:51;4.05;;;2.30;;
12631;SDS011;6381;45.748;12.106;2023-11-22T12:44:48;4.80;;;2.42;;
12631;SDS011;6381;45.748;12.106;2023-11-22T12:50:10;3.55;;;2.80;;
12631;SDS011;6381;45.748;12.106;2023-11-22T12:53:02;6.40;;;4.72;;
12631;SDS011;6381;45.748;12.106;2023-11-22T12:55:38;25.70;;;16.23;;
12631;SDS011;6381;45.748;12.106;2023-11-22T12:58:13;17.45;;;11.65;;
12631;SDS011;6381;45.748;12.106;2023-11-22T13:00:45;6.20;;;4.68;;
12631;SDS011;6381;45.748;12.106;2023-11-22T13:03:16;5.65;;;4.97;;
12631;SDS011;6381;45.748;12.106;2023-11-22T13:05:46;7.28;;;2.83;;
12631;SDS011;6381;45.748;12.106;2023-11-22T13:08:19;18.25;;;7.50;;
12631;SDS011;6381;45.748;12.106;2023-11-22T13:10:52;3.25;;;2.85;;
12631;SDS011;6381;45.748;12.106;2023-11-22T13:13:24;3.20;;;2.50;;
12631;SDS011;6381;45.748;12.106;2023-11-22T13:15:56;3.33;;;3.03;;
12631;SDS011;6381;45.748;12.106;2023-11-22T13:18:27;2.28;;;2.00;;
12631;SDS011;6381;45.748;12.106;2023-11-22T13:20:57;2.33;;;1.92;;
12631;SDS011;6381;45.748;12.106;2023-11-22T13:23:27;3.05;;;2.10;;
12631;SDS011;6381;45.748;12.106;2023-11-22T13:25:56;3.38;;;2.15;;
12631;SDS011;6381;45.748;12.106;2023-11-22T13:28:26;3.72;;;2.30;;
12631;SDS011;6381;45.748;12.106;2023-11-22T13:30:58;8.40;;;2.47;;
12631;SDS011;6381;45.748;12.106;2023-11-22T13:33:27;2.60;;;2.13;;
12631;SDS011;6381;45.748;12.106;2023-11-22T13:35:57;3.08;;;2.08;;
12631;SDS011;6381;45.748;12.106;2023-11-22T13:38:27;2.55;;;2.20;;
12631;SDS011;6381;45.748;12.106;2023-11-22T13:40:56;3.03;;;2.60;;
12631;SDS011;6381;45.748;12.106;2023-11-22T13:43:26;4.97;;;2.70;;
12631;SDS011;6381;45.748;12.106;2023-11-22T13:45:58;2.83;;;2.40;;
12631;SDS011;6381;45.748;12.106;2023-11-22T13:48:28;5.93;;;2.42;;
12631;SDS011;6381;45.748;12.106;2023-11-22T13:51:02;2.95;;;2.30;;
12631;SDS011;6381;45.748;12.106;2023-11-22T13:53:38;3.25;;;2.38;;
12631;SDS011;6381;45.748;12.106;2023-11-22T13:56:12;4.15;;;2.28;;
12631;SDS011;6381;45.748;12.106;2023-11-22T13:58:45;2.28;;;1.98;;
12631;SDS011;6381;45.748;12.106;2023-11-22T14:01:25;5.47;;;2.10;;
12631;SDS011;6381;45.748;12.106;2023-11-22T14:03:59;2.83;;;2.20;;
12631;SDS011;6381;45.748;12.106;2023-11-22T14:06:33;2.42;;;2.22;;
12631;SDS011;6381;45.748;12.106;2023-11-22T14:09:07;3.10;;;2.13;;
12631;SDS011;6381;45.748;12.106;2023-11-22T14:11:50;6.38;;;2.25;;
12631;SDS011;6381;45.748;12.106;2023-11-22T14:14:32;3.35;;;2.10;;
12631;SDS011;6381;45.748;12.106;2023-11-22T14:17:13;2.40;;;2.20;;
12631;SDS011;6381;45.748;12.106;2023-11-22T14:19:52;2.90;;;2.40;;
12631;SDS011;6381;45.748;12.106;2023-11-22T14:22:34;3.88;;;2.40;;
12631;SDS011;6381;45.748;12.106;2023-11-22T14:25:17;3.10;;;2.30;;
12631;SDS011;6381;45.748;12.106;2023-11-22T14:28:06;2.72;;;2.35;;
12631;SDS011;6381;45.748;12.106;2023-11-22T14:30:39;4.07;;;2.30;;
12631;SDS011;6381;45.748;12.106;2023-11-22T14:33:13;3.45;;;2.60;;
12631;SDS011;6381;45.748;12.106;2023-11-22T14:35:54;12.77;;;6.40;;
12631;SDS011;6381;45.748;12.106;2023-11-22T14:38:37;12.18;;;6.32;;
12631;SDS011;6381;45.748;12.106;2023-11-22T14:41:26;17.65;;;10.75;;
12631;SDS011;6381;45.748;12.106;2023-11-22T14:44:03;15.00;;;8.52;;
12631;SDS011;6381;45.748;12.106;2023-11-22T14:46:35;16.83;;;8.02;;
12631;SDS011;6381;45.748;12.106;2023-11-22T14:49:15;14.00;;;7.18;;
12631;SDS011;6381;45.748;12.106;2023-11-22T14:51:50;47.50;;;27.20;;
12631;SDS011;6381;45.748;12.106;2023-11-22T14:54:24;62.55;;;39.53;;
12631;SDS011;6381;45.748;12.106;2023-11-22T14:56:59;123.05;;;71.07;;
12631;SDS011;6381;45.748;12.106;2023-11-22T14:59:39;68.78;;;38.13;;
12631;SDS011;6381;45.748;12.106;2023-11-22T15:02:15;44.92;;;26.10;;
12631;SDS011;6381;45.748;12.106;2023-11-22T15:05:02;67.22;;;38.03;;
12631;SDS011;6381;45.748;12.106;2023-11-22T15:07:47;91.22;;;53.72;;
12631;SDS011;6381;45.748;12.106;2023-11-22T15:10:29;102.75;;;59.85;;